Time;durP1;ratioP1;P1;durP2;ratioP2;P2;SDS_P1;SDS_P2;PMS_P1;PMS_P2;Temp;Humidity;BMP_temperature;BMP_pressure;BME280_temperature;BME280_humidity;BME280_pressure;Samples;Min_cycle;Max_cycle;Signal;HPM_P1;HPM_P2
2021/03/16 00:02:19;;;;;;;6.10;5.05;;;7.50;74.10;;;;;;5051136;28;20048;-70
2021/03/16 00:04:45;;;;;;;5.80;4.35;;;7.50;74.00;;;;;;5052357;28;20459;-71
2021/03/16 00:07:11;;;;;;;5.78;4.32;;;7.50;73.90;;;;;;5052195;28;20049;-72
2021/03/16 00:09:36;;;;;;;6.18;5.13;;;7.50;74.00;;;;;;5058556;28;20082;-72
2021/03/16 00:12:03;;;;;;;6.00;5.00;;;7.50;74.20;;;;;;5051080;28;20100;-72
2021/03/16 00:14:29;;;;;;;6.78;5.20;;;7.40;74.10;;;;;;5050958;28;20025;-72
2021/03/16 00:16:55;;;;;;;5.63;5.03;;;7.40;74.10;;;;;;5052388;28;20359;-72
2021/03/16 00:19:21;;;;;;;4.55;3.70;;;7.40;74.20;;;;;;5052228;28;20463;-71
2021/03/16 00:21:47;;;;;;;4.78;4.15;;;7.40;74.30;;;;;;5052212;28;20032;-72
2021/03/16 00:24:13;;;;;;;4.20;3.75;;;7.40;74.30;;;;;;5052265;28;20104;-73
2021/03/16 00:26:39;;;;;;;4.80;3.35;;;7.40;74.20;;;;;;5052205;28;20100;-72
2021/03/16 00:29:05;;;;;;;4.07;3.40;;;7.30;73.90;;;;;;5051983;28;20485;-72
2021/03/16 00:31:31;;;;;;;3.45;2.78;;;7.30;74.00;;;;;;5052193;28;20029;-73
2021/03/16 00:33:57;;;;;;;3.13;2.72;;;7.30;74.20;;;;;;5053759;28;20074;-72
2021/03/16 00:36:23;;;;;;;3.20;2.90;;;7.30;74.10;;;;;;5054682;28;20017;-73
2021/03/16 00:38:49;;;;;;;5.22;3.33;;;7.30;74.10;;;;;;5056204;28;20032;-72
2021/03/16 00:41:14;;;;;;;4.32;2.70;;;7.30;74.10;;;;;;5071913;28;20099;-71
2021/03/16 00:43:40;;;;;;;3.60;2.92;;;7.30;74.00;;;;;;5076013;28;20108;-71
2021/03/16 00:46:06;;;;;;;2.78;2.47;;;7.30;74.10;;;;;;5074867;28;20470;-72
2021/03/16 00:48:32;;;;;;;3.08;2.25;;;7.30;73.90;;;;;;5075662;28;20049;-71
2021/03/16 00:50:58;;;;;;;4.35;3.00;;;7.30;73.60;;;;;;5074656;28;20028;-72
2021/03/16 00:53:24;;;;;;;3.15;2.58;;;7.20;73.10;;;;;;5072921;28;20103;-72
2021/03/16 00:55:49;;;;;;;3.13;2.83;;;7.20;73.00;;;;;;5055627;28;20416;-72
2021/03/16 00:58:15;;;;;;;3.33;2.75;;;7.10;72.80;;;;;;5055544;28;20021;-71
2021/03/16 01:00:41;;;;;;;3.13;2.70;;;7.00;72.80;;;;;;5054279;28;20017;-73
2021/03/16 01:03:07;;;;;;;5.93;3.47;;;6.90;72.70;;;;;;5055547;28;20382;-73
2021/03/16 01:05:34;;;;;;;3.78;3.25;;;6.90;72.70;;;;;;5054185;28;20025;-72
2021/03/16 01:08:00;;;;;;;4.57;3.25;;;6.80;72.80;;;;;;5055463;28;20100;-71
2021/03/16 01:10:29;;;;;;;4.00;2.80;;;6.80;72.80;;;;;;5055272;28;20156;-70
2021/03/16 01:12:55;;;;;;;3.00;2.70;;;6.70;72.80;;;;;;5055369;28;20021;-70
2021/03/16 01:15:21;;;;;;;3.85;3.13;;;6.70;72.80;;;;;;5055181;28;20516;-72
2021/03/16 01:17:46;;;;;;;3.67;3.05;;;6.60;72.70;;;;;;5055263;28;20025;-72
2021/03/16 01:20:16;;;;;;;3.53;3.10;;;6.60;72.80;;;;;;5054217;28;20033;-72
2021/03/16 01:22:42;;;;;;;3.22;2.78;;;6.50;72.80;;;;;;5054850;28;20037;-71
2021/03/16 01:25:08;;;;;;;4.22;3.28;;;6.50;73.00;;;;;;5054526;28;20393;-72
2021/03/16 01:27:34;;;;;;;4.35;3.47;;;6.50;73.00;;;;;;5053622;28;20124;-71
2021/03/16 01:30:00;;;;;;;5.05;3.83;;;6.50;73.00;;;;;;5053629;28;20033;-73
2021/03/16 01:32:26;;;;;;;5.78;3.95;;;6.40;73.00;;;;;;5054974;28;20067;-70
2021/03/16 01:34:51;;;;;;;5.47;3.78;;;6.40;74.00;;;;;;5054895;28;20566;-73
2021/03/16 01:37:17;;;;;;;4.85;3.97;;;6.40;73.30;;;;;;5061327;28;20397;-72
2021/03/16 01:39:45;;;;;;;4.53;3.65;;;6.40;73.30;;;;;;5073541;28;20025;-70
2021/03/16 01:42:11;;;;;;;5.63;4.05;;;6.40;73.40;;;;;;5074854;28;20028;-72
2021/03/16 01:44:38;;;;;;;5.13;3.88;;;6.40;73.40;;;;;;5073423;28;20509;-71
2021/03/16 01:47:04;;;;;;;4.40;3.63;;;6.40;73.60;;;;;;5071462;28;20031;-72
2021/03/16 01:49:30;;;;;;;5.25;4.25;;;6.40;73.70;;;;;;5054340;28;20036;-72
2021/03/16 01:51:56;;;;;;;5.20;3.80;;;6.40;73.90;;;;;;5053307;28;20327;-72
2021/03/16 01:54:22;;;;;;;6.18;4.63;;;6.50;74.00;;;;;;5054490;28;20021;-71
2021/03/16 01:56:48;;;;;;;5.43;4.28;;;6.50;74.10;;;;;;5054481;28;20013;-70
2021/03/16 01:59:17;;;;;;;5.40;4.40;;;6.50;74.30;;;;;;5054407;28;20021;-71
2021/03/16 02:01:43;;;;;;;6.40;4.80;;;6.50;74.40;;;;;;5054355;28;20025;-72
2021/03/16 02:04:11;;;;;;;5.95;4.40;;;6.60;74.40;;;;;;5054313;28;20029;-72
2021/03/16 02:06:44;;;;;;;6.05;4.65;;;6.70;74.50;;;;;;5054345;28;20079;-71
2021/03/16 02:09:28;;;;;;;5.03;3.60;;;6.70;74.60;;;;;;5053100;28;20372;-71
2021/03/16 02:12:01;;;;;;;7.78;4.30;;;6.80;74.60;;;;;;5054522;28;20425;-71
2021/03/16 02:14:31;;;;;;;6.28;3.78;;;6.90;74.50;;;;;;5054160;28;20025;-72
2021/03/16 02:17:10;;;;;;;16.40;3.90;;;6.90;74.40;;;;;;5054053;28;20039;-71
2021/03/16 02:19:44;;;;;;;4.47;3.95;;;7.00;74.40;;;;;;5073697;28;20030;-71
2021/03/16 02:22:10;;;;;;;6.38;4.43;;;7.10;74.50;;;;;;5073648;28;20032;-71
2021/03/16 02:25:03;;;;;;;5.97;4.18;;;7.10;74.30;;;;;;5073927;28;20420;-71
2021/03/16 02:27:40;;;;;;;4.97;3.92;;;7.20;74.10;;;;;;5057348;28;20104;-71
2021/03/16 02:30:08;;;;;;;5.53;3.53;;;7.30;74.20;;;;;;5052511;28;20025;-72
2021/03/16 02:32:36;;;;;;;6.40;4.32;;;7.30;74.10;;;;;;5053778;28;20103;-71
2021/03/16 02:35:04;;;;;;;4.50;3.67;;;7.30;73.80;;;;;;5052454;28;20381;-72
2021/03/16 02:37:35;;;;;;;4.60;3.65;;;7.40;73.90;;;;;;5053732;28;20052;-72
2021/03/16 02:40:03;;;;;;;3.85;3.25;;;7.40;74.00;;;;;;5059181;28;20017;-69
2021/03/16 02:42:33;;;;;;;4.05;3.38;;;7.50;73.90;;;;;;5073537;28;20404;-69
2021/03/16 02:44:59;;;;;;;4.90;4.05;;;7.50;73.80;;;;;;5073505;28;20020;-69
2021/03/16 02:47:26;;;;;;;4.72;3.65;;;7.50;73.70;;;;;;5073456;28;20029;-68
2021/03/16 02:49:52;;;;;;;6.75;4.38;;;7.60;73.40;;;;;;5073147;28;20040;-70
2021/03/16 02:52:19;;;;;;;5.53;4.15;;;7.60;72.90;;;;;;5073598;28;20370;-70
2021/03/16 02:54:49;;;;;;;7.20;4.28;;;7.60;72.70;;;;;;5073309;28;20466;-71
2021/03/16 02:57:16;;;;;;;3.67;3.22;;;7.70;72.80;;;;;;5073285;28;20020;-71
2021/03/16 02:59:43;;;;;;;5.22;3.75;;;7.70;72.80;;;;;;5073011;28;20097;-71
2021/03/16 03:02:13;;;;;;;4.78;3.80;;;7.70;72.80;;;;;;5071242;28;20052;-71
2021/03/16 03:04:41;;;;;;;4.28;3.78;;;7.70;72.60;;;;;;5070468;28;20081;-73
2021/03/16 03:07:11;;;;;;;5.45;3.78;;;7.80;72.60;;;;;;5073137;28;20028;-72
2021/03/16 03:09:37;;;;;;;7.78;4.07;;;7.80;72.50;;;;;;5073028;28;20028;-71
2021/03/16 03:12:06;;;;;;;6.03;3.92;;;7.80;72.50;;;;;;5073091;28;20055;-72
2021/03/16 03:14:33;;;;;;;4.88;3.67;;;7.90;72.40;;;;;;5072980;28;20107;-70
2021/03/16 03:16:59;;;;;;;5.88;4.13;;;7.90;72.30;;;;;;5072949;28;20513;-72
2021/03/16 03:19:25;;;;;;;5.65;4.07;;;7.90;72.20;;;;;;5072998;28;20377;-70
2021/03/16 03:22:12;;;;;;;4.63;3.63;;;7.90;71.90;;;;;;5072904;28;20024;-71
2021/03/16 03:24:45;;;;;;;5.40;4.05;;;7.90;71.80;;;;;;5068322;28;20032;-71
2021/03/16 03:27:19;;;;;;;7.38;4.00;;;7.90;71.70;;;;;;5052881;28;20489;-71
2021/03/16 03:29:47;;;;;;;4.88;3.70;;;7.90;71.70;;;;;;5052760;28;20434;-69
2021/03/16 03:32:16;;;;;;;4.50;3.75;;;7.90;71.90;;;;;;5064980;28;20048;-70
2021/03/16 03:34:45;;;;;;;7.88;4.63;;;7.90;71.80;;;;;;5071451;28;20115;-69
2021/03/16 03:37:12;;;;;;;4.45;3.60;;;7.90;71.80;;;;;;5072599;28;20027;-68
2021/03/16 03:39:38;;;;;;;6.90;4.03;;;7.90;71.80;;;;;;5071380;28;20594;-70
2021/03/16 03:42:06;;;;;;;8.60;4.70;;;7.90;71.90;;;;;;5071462;28;20032;-71
2021/03/16 03:44:34;;;;;;;5.55;3.83;;;7.90;71.50;;;;;;5072635;28;20025;-72
2021/03/16 03:47:02;;;;;;;8.20;3.85;;;7.90;71.60;;;;;;5072650;28;20024;-71
2021/03/16 03:49:28;;;;;;;8.63;4.95;;;8.00;71.80;;;;;;5072343;28;20040;-71
2021/03/16 03:51:56;;;;;;;9.90;4.75;;;8.00;71.70;;;;;;5071371;28;20385;-71
2021/03/16 03:54:23;;;;;;;6.75;4.60;;;8.00;71.70;;;;;;5072468;28;20016;-71
2021/03/16 03:56:50;;;;;;;9.50;4.93;;;8.00;71.80;;;;;;5072522;28;20520;-72
2021/03/16 03:59:16;;;;;;;7.28;5.30;;;8.00;71.70;;;;;;5071101;28;20024;-71
2021/03/16 04:01:43;;;;;;;10.48;6.53;;;8.00;71.70;;;;;;5070660;28;20028;-71
2021/03/16 04:04:09;;;;;;;10.27;5.75;;;8.00;71.60;;;;;;5068708;28;20021;-71
2021/03/16 04:06:36;;;;;;;9.13;6.25;;;8.00;71.50;;;;;;5051025;28;20063;-72
2021/03/16 04:09:03;;;;;;;9.65;5.85;;;8.00;71.40;;;;;;5052031;28;20035;-72
2021/03/16 04:11:29;;;;;;;9.60;6.03;;;8.00;71.50;;;;;;5053579;28;20027;-71
2021/03/16 04:13:55;;;;;;;9.65;6.00;;;8.00;71.60;;;;;;5055108;28;20111;-69
2021/03/16 04:16:21;;;;;;;12.02;7.65;;;8.10;71.70;;;;;;5056370;28;20032;-68
2021/03/16 04:18:48;;;;;;;7.75;6.18;;;8.00;71.50;;;;;;5056240;28;20025;-69
2021/03/16 04:21:15;;;;;;;12.65;7.25;;;8.10;71.70;;;;;;5056163;28;20385;-69
2021/03/16 04:23:42;;;;;;;10.93;5.93;;;8.10;71.50;;;;;;5056009;28;20028;-71
2021/03/16 04:26:07;;;;;;;10.38;6.47;;;8.10;71.70;;;;;;5056184;28;20087;-71
2021/03/16 04:28:34;;;;;;;11.23;6.05;;;8.10;71.50;;;;;;5056914;28;20029;-70
2021/03/16 04:30:59;;;;;;;9.75;5.97;;;8.10;71.30;;;;;;5056066;28;20108;-71
2021/03/16 04:33:25;;;;;;;9.02;5.97;;;8.10;71.30;;;;;;5054761;28;20113;-71
2021/03/16 04:35:51;;;;;;;12.20;6.13;;;8.20;71.40;;;;;;5055888;28;20524;-71
2021/03/16 04:38:17;;;;;;;10.30;6.70;;;8.20;71.50;;;;;;5056213;28;20020;-71
2021/03/16 04:40:43;;;;;;;12.57;5.55;;;8.20;71.50;;;;;;5055899;28;20024;-71
2021/03/16 04:43:09;;;;;;;8.20;5.68;;;8.20;71.40;;;;;;5055830;28;20029;-71
2021/03/16 04:45:35;;;;;;;8.48;5.32;;;8.20;71.60;;;;;;5055744;28;20032;-70
2021/03/16 04:48:01;;;;;;;9.88;5.47;;;8.30;71.30;;;;;;5055822;28;20386;-72
2021/03/16 04:50:27;;;;;;;11.68;5.43;;;8.30;71.20;;;;;;5072005;28;20041;-70
2021/03/16 04:52:53;;;;;;;12.05;6.07;;;8.30;71.10;;;;;;5075568;28;20032;-71
2021/03/16 04:55:19;;;;;;;11.65;6.20;;;8.30;71.00;;;;;;5075595;28;20029;-71
2021/03/16 04:57:44;;;;;;;7.55;5.60;;;8.20;70.50;;;;;;5074167;28;20107;-71
2021/03/16 05:00:12;;;;;;;9.02;5.13;;;8.20;70.30;;;;;;5074130;28;20025;-70
2021/03/16 05:02:37;;;;;;;9.38;5.43;;;8.20;70.40;;;;;;5075306;28;20021;-71
2021/03/16 05:05:05;;;;;;;10.48;5.03;;;8.20;70.50;;;;;;5075287;28;20034;-70
2021/03/16 05:07:30;;;;;;;9.13;5.75;;;8.20;70.60;;;;;;5072134;28;20043;-71
2021/03/16 05:09:56;;;;;;;10.40;5.15;;;8.20;70.50;;;;;;5073826;28;20033;-71
2021/03/16 05:12:22;;;;;;;9.73;5.63;;;8.10;70.40;;;;;;5075172;28;20055;-70
2021/03/16 05:14:48;;;;;;;7.72;4.97;;;8.10;70.50;;;;;;5075191;28;20050;-71
2021/03/16 05:17:14;;;;;;;8.93;5.15;;;8.10;70.60;;;;;;5073728;28;20020;-70
2021/03/16 05:19:40;;;;;;;9.65;5.45;;;8.10;70.60;;;;;;5075080;28;20039;-70
2021/03/16 05:22:05;;;;;;;9.13;4.30;;;8.10;70.40;;;;;;5067655;28;20067;-71
2021/03/16 05:24:31;;;;;;;7.13;4.65;;;8.10;70.50;;;;;;5054957;28;20028;-71
2021/03/16 05:26:57;;;;;;;8.30;3.97;;;8.10;70.40;;;;;;5053588;28;20083;-71
2021/03/16 05:29:23;;;;;;;7.47;4.85;;;8.10;70.50;;;;;;5059751;28;20387;-70
2021/03/16 05:31:49;;;;;;;12.77;4.97;;;8.10;70.40;;;;;;5075272;28;20028;-69
2021/03/16 05:34:15;;;;;;;6.75;4.60;;;8.10;70.40;;;;;;5075235;28;20016;-69
2021/03/16 05:36:41;;;;;;;10.15;4.40;;;8.10;70.50;;;;;;5075289;28;20020;-69
2021/03/16 05:39:07;;;;;;;10.60;4.43;;;8.20;70.70;;;;;;5074112;28;20390;-68
2021/03/16 05:41:35;;;;;;;7.80;3.90;;;8.20;70.80;;;;;;5075235;28;20021;-69
2021/03/16 05:44:01;;;;;;;7.55;4.22;;;8.20;70.90;;;;;;5073998;28;20162;-69
2021/03/16 05:46:27;;;;;;;10.75;4.55;;;8.30;71.10;;;;;;5075325;28;20024;-69
2021/03/16 05:49:01;;;;;;;9.32;4.68;;;8.30;71.10;;;;;;5073944;28;20051;-70
2021/03/16 05:51:27;;;;;;;10.27;5.00;;;8.30;71.10;;;;;;5075582;28;20020;-70
2021/03/16 05:53:53;;;;;;;8.80;4.80;;;8.40;71.10;;;;;;5074853;28;20060;-70
2021/03/16 05:56:19;;;;;;;10.63;4.95;;;8.40;70.80;;;;;;5074411;28;20044;-70
2021/03/16 05:58:45;;;;;;;15.60;5.15;;;8.40;70.50;;;;;;5073094;28;20025;-70
2021/03/16 06:01:13;;;;;;;8.98;3.75;;;8.40;69.90;;;;;;5053118;28;20052;-69
2021/03/16 06:03:39;;;;;;;13.48;4.38;;;8.40;69.70;;;;;;5054274;28;20021;-69
2021/03/16 06:06:05;;;;;;;8.88;3.70;;;8.40;69.40;;;;;;5054156;28;20036;-70
2021/03/16 06:08:31;;;;;;;8.20;4.00;;;8.30;69.20;;;;;;5052731;28;20055;-69
2021/03/16 06:10:58;;;;;;;6.07;3.40;;;8.30;68.90;;;;;;5052935;28;20498;-70
2021/03/16 06:13:25;;;;;;;8.20;3.53;;;8.30;69.20;;;;;;5054044;28;20104;-69
2021/03/16 06:15:52;;;;;;;8.43;3.50;;;8.30;69.50;;;;;;5054000;28;20017;-70
2021/03/16 06:18:26;;;;;;;9.32;3.33;;;8.30;69.60;;;;;;5053864;28;20025;-70
2021/03/16 06:21:04;;;;;;;10.10;3.92;;;8.30;69.60;;;;;;5064254;28;20040;-70
2021/03/16 06:23:34;;;;;;;16.13;4.28;;;8.30;69.80;;;;;;5053979;28;20029;-69
2021/03/16 06:26:01;;;;;;;8.35;3.45;;;8.30;69.90;;;;;;5053915;28;20033;-70
2021/03/16 06:28:35;;;;;;;7.65;4.07;;;8.30;70.00;;;;;;5052236;28;20025;-70
2021/03/16 06:31:02;;;;;;;8.45;3.72;;;8.30;70.20;;;;;;5060439;28;20024;-69
2021/03/16 06:33:29;;;;;;;12.52;4.55;;;8.40;70.10;;;;;;5072808;28;20024;-69
2021/03/16 06:36:02;;;;;;;7.95;3.35;;;8.40;69.60;;;;;;5073471;28;20154;-69
2021/03/16 06:38:29;;;;;;;10.73;3.55;;;8.40;69.70;;;;;;5073228;28;20111;-71
2021/03/16 06:41:06;;;;;;;10.23;4.65;;;8.40;70.00;;;;;;5073515;28;20342;-70
2021/03/16 06:43:32;;;;;;;11.82;4.97;;;8.40;70.20;;;;;;5073337;28;20058;-70
2021/03/16 06:45:58;;;;;;;14.82;5.68;;;8.40;70.10;;;;;;5073392;28;20096;-70
2021/03/16 06:48:25;;;;;;;11.90;5.57;;;8.40;69.90;;;;;;5070997;28;20107;-70
2021/03/16 06:50:51;;;;;;;13.18;5.70;;;8.40;69.90;;;;;;5073087;28;20559;-71
2021/03/16 06:53:20;;;;;;;11.27;4.43;;;8.50;70.10;;;;;;5073117;28;20103;-70
2021/03/16 06:55:56;;;;;;;9.70;4.22;;;8.50;70.30;;;;;;5073057;28;20023;-70
2021/03/16 06:58:32;;;;;;;9.75;4.35;;;8.40;70.40;;;;;;5071532;28;20017;-70
2021/03/16 07:01:11;;;;;;;9.98;4.30;;;8.40;70.20;;;;;;5072981;28;20481;-69
2021/03/16 07:03:37;;;;;;;8.27;4.25;;;8.40;70.70;;;;;;5071156;28;20071;-70
2021/03/16 07:06:08;;;;;;;11.15;4.88;;;8.30;71.10;;;;;;5072914;28;20290;-70
2021/03/16 07:08:35;;;;;;;13.65;4.32;;;8.40;71.30;;;;;;5072643;28;20021;-70
2021/03/16 07:11:03;;;;;;;10.55;4.03;;;8.40;71.20;;;;;;5072810;28;20039;-71
2021/03/16 07:13:33;;;;;;;11.60;3.85;;;8.30;70.80;;;;;;5072739;28;20023;-70
2021/03/16 07:16:03;;;;;;;10.13;3.83;;;8.30;70.80;;;;;;5072478;28;20048;-69
2021/03/16 07:18:36;;;;;;;12.63;4.65;;;8.30;70.40;;;;;;5072643;28;20035;-69
2021/03/16 07:21:11;;;;;;;10.20;3.95;;;8.30;70.00;;;;;;5051037;28;20017;-73
2021/03/16 07:23:44;;;;;;;11.38;3.50;;;8.30;70.40;;;;;;5051359;28;20108;-69
2021/03/16 07:26:11;;;;;;;7.60;3.83;;;8.30;70.90;;;;;;5052400;28;20386;-69
2021/03/16 07:28:37;;;;;;;7.07;3.25;;;8.40;71.00;;;;;;5052322;28;20025;-70
2021/03/16 07:31:04;;;;;;;7.22;3.85;;;8.40;70.90;;;;;;5054096;28;20099;-69
2021/03/16 07:33:30;;;;;;;8.57;3.63;;;8.50;71.00;;;;;;5071510;28;20035;-72
2021/03/16 07:35:57;;;;;;;7.15;3.05;;;8.50;70.90;;;;;;5072663;28;20087;-70
2021/03/16 07:38:23;;;;;;;7.63;3.20;;;8.50;70.10;;;;;;5071265;28;20094;-71
2021/03/16 07:40:51;;;;;;;10.18;3.10;;;8.60;70.10;;;;;;5072513;28;20078;-70
2021/03/16 07:43:17;;;;;;;6.90;2.60;;;8.60;70.40;;;;;;5072585;28;20119;-71
2021/03/16 07:45:44;;;;;;;6.70;3.13;;;8.60;70.40;;;;;;5065816;28;20516;-71
2021/03/16 07:48:17;;;;;;;6.72;2.72;;;8.70;70.60;;;;;;5050967;28;20043;-69
2021/03/16 07:50:44;;;;;;;8.40;2.72;;;8.80;70.60;;;;;;5052471;28;20029;-70
2021/03/16 07:53:09;;;;;;;10.13;2.83;;;8.90;70.80;;;;;;5051118;28;20079;-71
2021/03/16 07:55:35;;;;;;;9.27;2.20;;;9.00;71.00;;;;;;5052483;28;20106;-71
2021/03/16 07:58:12;;;;;;;4.95;1.90;;;9.10;70.60;;;;;;5052241;28;20024;-70
2021/03/16 08:00:38;;;;;;;3.13;2.00;;;9.10;70.70;;;;;;5055758;28;20119;-69
2021/03/16 08:03:07;;;;;;;5.13;1.60;;;9.30;70.60;;;;;;5062097;28;20113;-70
2021/03/16 08:05:44;;;;;;;7.40;1.85;;;9.30;69.20;;;;;;5072388;28;20032;-70
2021/03/16 08:08:17;;;;;;;8.32;1.88;;;9.30;67.30;;;;;;5053908;28;20105;-70
2021/03/16 08:10:44;;;;;;;2.75;1.55;;;9.40;67.60;;;;;;5052214;28;20029;-70
2021/03/16 08:13:18;;;;;;;8.15;2.22;;;9.40;67.50;;;;;;5052011;28;20028;-70
2021/03/16 08:15:49;;;;;;;8.15;1.90;;;9.40;66.00;;;;;;5052243;28;20474;-70
2021/03/16 08:18:27;;;;;;;8.85;1.92;;;9.40;66.10;;;;;;5050683;28;20056;-69
2021/03/16 08:21:05;;;;;;;9.88;2.10;;;9.50;65.70;;;;;;5051776;28;20029;-71
2021/03/16 08:23:32;;;;;;;5.10;1.70;;;9.50;66.00;;;;;;5052038;28;20021;-70
2021/03/16 08:26:02;;;;;;;6.68;1.58;;;9.60;66.50;;;;;;5061766;28;20028;-70
2021/03/16 08:28:28;;;;;;;4.55;1.50;;;9.70;66.70;;;;;;5061051;28;20529;-70
2021/03/16 08:30:54;;;;;;;4.13;1.58;;;9.70;66.50;;;;;;5070705;28;20025;-70
2021/03/16 08:33:20;;;;;;;6.00;1.85;;;9.80;65.40;;;;;;5069723;28;20457;-70
2021/03/16 08:35:53;;;;;;;7.80;1.90;;;9.80;64.30;;;;;;5072307;28;20363;-70
2021/03/16 08:38:29;;;;;;;9.90;2.17;;;9.80;64.30;;;;;;5071945;28;20024;-69
2021/03/16 08:41:10;;;;;;;4.15;1.77;;;9.80;63.90;;;;;;5072036;28;20016;-70
2021/03/16 08:43:36;;;;;;;4.82;1.40;;;9.80;63.40;;;;;;5071973;28;20100;-70
2021/03/16 08:46:03;;;;;;;5.40;1.13;;;9.90;64.80;;;;;;5072264;28;20025;-69
2021/03/16 08:48:31;;;;;;;3.00;1.75;;;10.00;64.50;;;;;;5071611;28;20041;-69
2021/03/16 08:50:57;;;;;;;7.50;1.80;;;10.10;63.40;;;;;;5070650;28;20032;-69
2021/03/16 08:53:23;;;;;;;4.88;1.60;;;10.10;62.80;;;;;;5072007;28;20021;-69
2021/03/16 08:55:50;;;;;;;6.38;1.75;;;10.10;62.30;;;;;;5070745;28;20033;-70
2021/03/16 08:58:17;;;;;;;3.88;1.42;;;10.10;63.10;;;;;;5069415;28;20019;-69
2021/03/16 09:00:43;;;;;;;8.35;2.05;;;10.20;63.80;;;;;;5061096;28;20043;-69
2021/03/16 09:03:09;;;;;;;5.13;1.80;;;10.20;63.50;;;;;;5064778;28;20039;-69
2021/03/16 09:05:35;;;;;;;4.70;1.92;;;10.30;63.90;;;;;;5073605;28;20028;-69
2021/03/16 09:08:01;;;;;;;8.05;2.47;;;10.40;63.50;;;;;;5058000;28;20033;-69
2021/03/16 09:10:28;;;;;;;8.50;1.88;;;10.50;63.60;;;;;;5058524;28;20486;-70
2021/03/16 09:12:55;;;;;;;4.63;1.35;;;10.60;63.30;;;;;;5053949;28;20025;-70
2021/03/16 09:15:22;;;;;;;7.45;2.05;;;10.70;62.70;;;;;;5055194;28;20051;-70
2021/03/16 09:17:50;;;;;;;7.32;1.77;;;10.70;62.20;;;;;;5068068;28;20060;-69
2021/03/16 09:20:34;;;;;;;4.53;1.60;;;10.70;59.10;;;;;;5060006;28;20027;-70
2021/03/16 09:23:09;;;;;;;4.85;1.63;;;10.70;59.40;;;;;;5073827;28;20482;-69
2021/03/16 09:25:41;;;;;;;7.72;1.67;;;10.70;59.80;;;;;;5075104;28;20385;-69
2021/03/16 09:28:13;;;;;;;5.85;1.38;;;10.60;59.70;;;;;;5075160;28;20024;-69
2021/03/16 09:30:45;;;;;;;7.07;1.90;;;10.60;59.40;;;;;;5074281;28;20077;-70
2021/03/16 09:33:13;;;;;;;4.15;1.50;;;10.60;59.20;;;;;;5057866;28;20428;-69
2021/03/16 09:35:39;;;;;;;12.30;1.75;;;10.50;59.10;;;;;;5053596;28;20477;-69
2021/03/16 09:38:06;;;;;;;10.18;1.92;;;10.50;59.20;;;;;;5053518;28;20584;-68
2021/03/16 09:40:44;;;;;;;9.90;1.70;;;10.50;59.20;;;;;;5053474;28;20028;-69
2021/03/16 09:43:19;;;;;;;8.95;1.95;;;10.50;59.60;;;;;;5055043;28;20378;-69
2021/03/16 09:45:59;;;;;;;3.45;1.40;;;10.50;59.40;;;;;;5054542;28;20048;-69
2021/03/16 09:48:26;;;;;;;3.85;1.65;;;10.40;60.20;;;;;;5054397;28;20070;-69
2021/03/16 09:50:54;;;;;;;5.20;1.60;;;10.40;59.50;;;;;;5054519;28;20025;-69
2021/03/16 09:53:20;;;;;;;3.20;1.05;;;10.30;59.40;;;;;;5054488;28;20099;-69
2021/03/16 09:55:59;;;;;;;4.55;1.38;;;10.20;59.80;;;;;;5053288;28;20071;-69
2021/03/16 09:58:27;;;;;;;7.80;2.75;;;10.10;59.30;;;;;;5054426;28;20028;-69
2021/03/16 10:00:53;;;;;;;14.23;2.20;;;10.00;59.10;;;;;;5054374;28;20033;-68
2021/03/16 10:03:20;;;;;;;4.85;1.35;;;9.90;59.50;;;;;;5053029;28;20025;-70
2021/03/16 10:05:47;;;;;;;5.75;2.00;;;9.90;60.10;;;;;;5054265;28;20122;-69
2021/03/16 10:08:23;;;;;;;6.55;1.35;;;9.80;60.50;;;;;;5052664;28;20052;-70
2021/03/16 10:10:56;;;;;;;4.55;1.63;;;9.80;61.20;;;;;;5069308;28;20115;-69
2021/03/16 10:13:31;;;;;;;3.30;1.65;;;9.80;61.30;;;;;;5073945;28;20114;-70
2021/03/16 10:16:05;;;;;;;4.78;1.55;;;9.80;62.30;;;;;;5059477;28;20076;-70
2021/03/16 10:18:44;;;;;;;8.10;1.85;;;9.90;62.60;;;;;;5054046;28;20111;-69
2021/03/16 10:21:10;;;;;;;7.25;2.10;;;10.00;62.40;;;;;;5057530;28;20028;-69
2021/03/16 10:23:36;;;;;;;3.08;2.10;;;10.10;62.40;;;;;;5072096;28;20552;-70
2021/03/16 10:26:12;;;;;;;5.85;1.40;;;10.10;61.50;;;;;;5072702;28;20043;-69
2021/03/16 10:28:38;;;;;;;7.07;1.70;;;10.20;61.40;;;;;;5073720;28;20029;-69
2021/03/16 10:31:25;;;;;;;7.38;1.67;;;10.30;62.40;;;;;;5072552;28;20028;-69
2021/03/16 10:33:54;;;;;;;5.78;1.70;;;10.40;63.50;;;;;;5054136;28;20027;-71
2021/03/16 10:36:23;;;;;;;5.90;2.00;;;10.50;63.70;;;;;;5052463;28;20116;-70
2021/03/16 10:38:50;;;;;;;5.97;2.20;;;10.60;62.00;;;;;;5073495;28;20070;-68
2021/03/16 10:41:17;;;;;;;8.57;2.53;;;10.70;61.10;;;;;;5073391;28;20017;-68
2021/03/16 10:43:43;;;;;;;7.28;2.13;;;10.70;59.70;;;;;;5057144;28;20536;-68
2021/03/16 10:46:09;;;;;;;2.97;1.80;;;10.80;60.20;;;;;;5053114;28;20025;-69
2021/03/16 10:48:35;;;;;;;9.57;2.10;;;10.90;60.40;;;;;;5053454;28;20585;-68
2021/03/16 10:51:02;;;;;;;8.15;1.65;;;11.00;58.60;;;;;;5072520;28;20093;-69
2021/03/16 10:53:28;;;;;;;4.93;1.75;;;11.10;58.70;;;;;;5052465;28;20059;-68
2021/03/16 10:55:53;;;;;;;4.40;1.27;;;11.10;57.60;;;;;;5050711;28;20056;-66
2021/03/16 10:58:19;;;;;;;7.38;1.60;;;11.10;58.40;;;;;;5052903;28;20021;-70
2021/03/16 11:00:45;;;;;;;5.05;1.42;;;11.10;57.30;;;;;;5051771;28;20123;-74
2021/03/16 11:03:11;;;;;;;6.80;2.15;;;11.10;57.60;;;;;;5053310;28;20029;-74
2021/03/16 11:05:37;;;;;;;4.30;1.55;;;11.10;57.30;;;;;;5051966;28;20108;-73
2021/03/16 11:08:03;;;;;;;6.20;1.20;;;11.10;57.20;;;;;;5053319;28;20078;-71
2021/03/16 11:10:29;;;;;;;3.80;1.30;;;11.20;57.30;;;;;;5053393;28;20024;-73
2021/03/16 11:12:55;;;;;;;4.10;1.65;;;11.30;57.20;;;;;;5052938;28;20021;-72
2021/03/16 11:15:21;;;;;;;7.32;1.70;;;11.30;56.90;;;;;;5053041;28;20030;-74
2021/03/16 11:17:46;;;;;;;5.28;1.42;;;11.30;56.40;;;;;;5052866;28;20430;-72
2021/03/16 11:20:13;;;;;;;4.47;1.77;;;11.40;57.40;;;;;;5052302;28;20029;-73
2021/03/16 11:22:39;;;;;;;3.15;1.25;;;11.40;57.50;;;;;;5057955;28;20240;-73
2021/03/16 11:25:06;;;;;;;5.47;1.77;;;11.50;57.30;;;;;;5070792;28;21241;-73
2021/03/16 11:27:32;;;;;;;6.25;1.67;;;11.60;56.00;;;;;;5062351;28;20035;-72
2021/03/16 11:29:58;;;;;;;5.60;1.40;;;11.50;55.00;;;;;;5056530;28;20029;-72
2021/03/16 11:32:24;;;;;;;4.15;1.40;;;11.50;54.90;;;;;;5065138;28;20043;-72
2021/03/16 11:34:50;;;;;;;3.10;1.25;;;11.50;54.40;;;;;;5071304;28;20103;-72
2021/03/16 11:37:16;;;;;;;7.30;1.70;;;11.60;54.00;;;;;;5053517;28;20158;-72
2021/03/16 11:39:44;;;;;;;3.50;1.40;;;11.50;53.90;;;;;;5068189;28;20474;-71
2021/03/16 11:42:11;;;;;;;4.63;1.70;;;11.50;53.60;;;;;;5072391;28;20035;-71
2021/03/16 11:44:37;;;;;;;5.70;1.38;;;11.40;52.80;;;;;;5070337;28;20024;-71
2021/03/16 11:47:03;;;;;;;4.63;1.00;;;11.40;54.60;;;;;;5072678;28;20046;-71
2021/03/16 11:49:28;;;;;;;7.53;1.70;;;11.40;53.30;;;;;;5061502;28;20486;-71
2021/03/16 11:51:54;;;;;;;3.13;1.13;;;11.40;54.50;;;;;;5067784;28;20025;-71
2021/03/16 11:54:20;;;;;;;7.97;1.65;;;11.40;54.50;;;;;;5069386;28;20022;-71
2021/03/16 11:56:46;;;;;;;3.72;1.20;;;11.40;53.60;;;;;;5052608;28;20104;-71
2021/03/16 11:59:12;;;;;;;3.90;1.20;;;11.30;53.20;;;;;;5052215;28;20082;-71
2021/03/16 12:01:37;;;;;;;4.72;1.20;;;11.30;53.10;;;;;;5055253;28;20375;-71
2021/03/16 12:04:03;;;;;;;5.10;1.52;;;11.20;52.00;;;;;;5052341;28;20029;-70
2021/03/16 12:06:29;;;;;;;4.00;1.50;;;11.20;52.70;;;;;;5052233;28;20028;-70
2021/03/16 12:08:55;;;;;;;4.20;1.10;;;11.10;53.50;;;;;;5056122;28;20578;-71
2021/03/16 12:11:21;;;;;;;4.47;1.33;;;11.10;53.30;;;;;;5055846;28;20024;-70
2021/03/16 12:13:47;;;;;;;3.58;1.30;;;11.00;51.60;;;;;;5052277;28;20056;-70
2021/03/16 12:16:13;;;;;;;4.65;1.33;;;11.00;52.40;;;;;;5052295;28;20064;-70
2021/03/16 12:18:39;;;;;;;5.07;1.17;;;11.00;52.60;;;;;;5052321;28;20079;-70
2021/03/16 12:21:05;;;;;;;5.95;1.45;;;11.00;52.70;;;;;;5051015;28;20025;-70
2021/03/16 12:23:31;;;;;;;5.32;1.40;;;11.10;52.70;;;;;;5052309;28;20100;-70
2021/03/16 12:25:57;;;;;;;3.63;1.10;;;11.10;51.90;;;;;;5052221;28;20033;-70
2021/03/16 12:28:23;;;;;;;5.25;1.48;;;11.10;53.10;;;;;;5053881;28;20028;-70
2021/03/16 12:30:49;;;;;;;6.32;1.65;;;11.20;52.30;;;;;;5052393;28;20021;-70
2021/03/16 12:33:17;;;;;;;4.28;1.90;;;11.30;52.50;;;;;;5055902;28;20033;-70
2021/03/16 12:35:44;;;;;;;5.57;1.50;;;11.40;53.10;;;;;;5054735;28;20025;-70
2021/03/16 12:38:10;;;;;;;5.65;1.50;;;11.50;54.00;;;;;;5055997;28;20107;-70
2021/03/16 12:40:36;;;;;;;5.88;1.55;;;11.70;54.50;;;;;;5056032;28;20033;-70
2021/03/16 12:43:02;;;;;;;4.82;1.27;;;11.90;53.50;;;;;;5054589;28;20382;-70
2021/03/16 12:45:28;;;;;;;2.40;1.40;;;12.00;53.00;;;;;;5055983;28;20025;-70
2021/03/16 12:47:56;;;;;;;8.13;1.67;;;12.00;53.00;;;;;;5055709;28;20025;-70
2021/03/16 12:50:22;;;;;;;6.38;1.40;;;12.00;51.70;;;;;;5055506;28;20090;-70
2021/03/16 12:52:48;;;;;;;4.95;1.40;;;11.80;52.00;;;;;;5055636;28;20096;-70
2021/03/16 12:55:14;;;;;;;9.00;1.63;;;11.70;52.60;;;;;;5055755;28;20055;-70
2021/03/16 12:57:40;;;;;;;5.53;1.42;;;11.70;52.90;;;;;;5055478;28;20108;-70